Time;durP1;ratioP1;P1;durP2;ratioP2;P2;SDS_P1;SDS_P2;PMS_P1;PMS_P2;Temp;Humidity;BMP_temperature;BMP_pressure;BME280_temperature;BME280_humidity;BME280_pressure;Samples;Min_cycle;Max_cycle;Signal;HPM_P1;HPM_P2
2021/03/18 00:01:42;;;;;;;11.07;6.97;;;;;;;-0.16;85.34;101793.91;5018361;28;20208;-71
2021/03/18 00:04:09;;;;;;;11.33;6.97;;;;;;;-0.20;85.93;101793.91;5017293;28;20180;-71
2021/03/18 00:06:34;;;;;;;10.00;7.33;;;;;;;-0.17;86.17;101788.66;5017152;28;20184;-71
2021/03/18 00:09:00;;;;;;;10.63;7.73;;;;;;;-0.13;86.07;101799.19;5016929;28;20237;-72
2021/03/18 00:11:27;;;;;;;13.23;7.80;;;;;;;-0.09;85.41;101784.34;5017077;28;20176;-72
2021/03/18 00:13:52;;;;;;;13.03;8.77;;;;;;;-0.05;85.65;101786.97;5016645;28;20180;-72
2021/03/18 00:16:17;;;;;;;10.10;7.67;;;;;;;-0.01;85.76;101782.63;5034355;28;20180;-72
2021/03/18 00:18:46;;;;;;;16.87;11.13;;;;;;;0.13;85.49;101780.09;5034363;28;20215;-71
2021/03/18 00:21:12;;;;;;;11.37;8.33;;;;;;;0.08;84.95;101776.56;5033692;28;20173;-72
2021/03/18 00:23:37;;;;;;;11.87;7.43;;;;;;;0.08;85.08;101777.44;5016611;28;20286;-72
2021/03/18 00:26:03;;;;;;;12.07;7.80;;;;;;;0.11;84.60;101776.59;5016524;28;20212;-70
2021/03/18 00:28:29;;;;;;;11.23;7.23;;;;;;;0.12;84.70;101770.47;5034633;28;20262;-70
2021/03/18 00:30:55;;;;;;;11.70;6.90;;;;;;;0.13;84.36;101770.47;5016795;28;20259;-71
2021/03/18 00:33:21;;;;;;;8.57;6.73;;;;;;;0.17;84.50;101772.22;5034240;28;20232;-71
2021/03/18 00:35:47;;;;;;;10.40;6.30;;;;;;;0.21;84.52;101774.00;5016502;28;20184;-71
2021/03/18 00:38:12;;;;;;;12.33;7.17;;;;;;;0.26;84.01;101766.13;5016298;28;20276;-72
2021/03/18 00:40:41;;;;;;;12.43;6.93;;;;;;;0.32;84.22;101771.41;5034381;28;20204;-72
2021/03/18 00:43:09;;;;;;;10.40;7.23;;;;;;;0.37;83.63;101774.03;5033829;28;20222;-70
2021/03/18 00:45:37;;;;;;;9.87;6.77;;;;;;;0.40;83.40;101769.72;5016539;28;20536;-71
2021/03/18 00:48:04;;;;;;;9.97;6.97;;;;;;;0.42;83.20;101772.34;5016268;28;20212;-71
2021/03/18 00:50:40;;;;;;;10.60;6.03;;;;;;;0.43;83.09;101768.84;5034409;28;20181;-71
2021/03/18 00:53:07;;;;;;;8.93;6.27;;;;;;;0.42;82.55;101772.34;5016355;28;20175;-72
2021/03/18 00:55:32;;;;;;;9.37;6.67;;;;;;;0.31;82.76;101780.16;5015839;28;20283;-71
2021/03/18 00:57:57;;;;;;;8.13;6.57;;;;;;;0.26;83.10;101776.63;5016067;28;20198;-72
2021/03/18 01:00:30;;;;;;;11.00;7.00;;;;;;;0.21;83.57;101766.13;5016021;28;20299;-72
2021/03/18 01:02:56;;;;;;;9.33;7.17;;;;;;;0.23;83.46;101766.13;5016120;28;20169;-72
2021/03/18 01:05:43;;;;;;;10.03;6.77;;;;;;;0.25;83.86;101769.63;4999315;28;20188;-72
2021/03/18 01:08:09;;;;;;;10.33;7.37;;;;;;;0.34;83.86;101755.66;5015458;28;20232;-71
2021/03/18 01:10:42;;;;;;;10.23;7.00;;;;;;;0.40;83.55;101748.69;5033499;28;20172;-71
2021/03/18 01:13:08;;;;;;;9.93;7.17;;;;;;;0.46;83.48;101758.34;5015895;28;20215;-71
2021/03/18 01:15:34;;;;;;;10.07;7.47;;;;;;;0.50;83.12;101752.22;5034814;28;20180;-71
2021/03/18 01:17:59;;;;;;;10.97;7.40;;;;;;;0.51;82.38;101756.59;5015806;28;20188;-71
2021/03/18 01:20:25;;;;;;;10.83;6.87;;;;;;;0.49;82.53;101753.97;5033207;28;20199;-71
2021/03/18 01:22:50;;;;;;;10.63;6.87;;;;;;;0.46;82.41;101747.84;5015871;28;20189;-71
2021/03/18 01:25:16;;;;;;;10.30;6.90;;;;;;;0.40;82.53;101750.44;5033561;28;20298;-71
2021/03/18 01:27:41;;;;;;;10.90;7.27;;;;;;;0.37;82.79;101751.28;5033094;28;20196;-71
2021/03/18 01:30:12;;;;;;;8.83;6.93;;;;;;;0.34;82.91;101753.03;5033159;28;20185;-71
2021/03/18 01:32:38;;;;;;;9.47;7.90;;;;;;;0.30;83.13;101746.88;5015692;28;20168;-71
2021/03/18 01:35:08;;;;;;;11.13;8.17;;;;;;;0.26;83.72;101743.38;5015549;28;20587;-70
2021/03/18 01:37:33;;;;;;;9.80;6.93;;;;;;;0.23;83.30;101751.25;5015391;28;20667;-71
2021/03/18 01:39:58;;;;;;;12.67;9.53;;;;;;;0.19;84.19;101736.34;5033008;28;20197;-71
2021/03/18 01:42:24;;;;;;;13.60;9.77;;;;;;;0.22;84.57;101744.25;5016165;28;20188;-71
2021/03/18 01:44:49;;;;;;;13.80;9.43;;;;;;;0.22;84.91;101738.13;5017252;28;20623;-71
2021/03/18 01:47:14;;;;;;;14.33;9.80;;;;;;;0.21;84.94;101732.00;5034207;28;20204;-72
2021/03/18 01:49:40;;;;;;;14.97;9.70;;;;;;;0.24;85.14;101737.25;5033935;28;20672;-71
2021/03/18 01:52:05;;;;;;;16.07;10.67;;;;;;;0.27;85.08;101737.25;5034229;28;20184;-72
2021/03/18 01:54:30;;;;;;;12.30;8.53;;;;;;;0.28;84.54;101727.63;5034238;28;20234;-72
2021/03/18 01:56:58;;;;;;;14.20;10.20;;;;;;;0.31;84.68;101725.88;5015456;28;20713;-72
2021/03/18 01:59:23;;;;;;;13.27;9.20;;;;;;;0.35;84.66;101725.91;4999139;28;20557;-71
2021/03/18 02:01:49;;;;;;;12.37;8.97;;;;;;;0.32;84.63;101717.13;5034347;28;20268;-72
2021/03/18 02:04:14;;;;;;;13.90;9.30;;;;;;;0.32;84.49;101719.75;5015753;28;20184;-72
2021/03/18 02:06:39;;;;;;;11.77;8.83;;;;;;;0.34;84.36;101716.25;5016170;28;20180;-70
2021/03/18 02:09:05;;;;;;;11.60;8.70;;;;;;;0.34;84.20;101718.88;5033902;28;20216;-72
2021/03/18 02:11:30;;;;;;;11.87;8.87;;;;;;;0.34;84.51;101721.50;5018358;28;20177;-71
2021/03/18 02:13:56;;;;;;;12.63;8.90;;;;;;;0.36;84.17;101717.16;5040677;28;20625;-71
2021/03/18 02:16:24;;;;;;;12.63;8.67;;;;;;;0.37;84.45;101713.66;5035426;28;20215;-72
2021/03/18 02:18:56;;;;;;;16.53;9.90;;;;;;;0.38;84.20;101710.19;5024197;28;20250;-72
2021/03/18 02:21:37;;;;;;;13.77;9.30;;;;;;;0.38;84.14;101713.69;5026250;28;20165;-72
2021/03/18 02:24:20;;;;;;;11.73;8.43;;;;;;;0.40;83.89;101711.06;5037069;28;20187;-71
2021/03/18 02:27:13;;;;;;;13.43;9.20;;;;;;;0.39;84.17;101710.19;5019514;28;20220;-72
2021/03/18 02:30:10;;;;;;;14.07;10.20;;;;;;;0.34;84.00;101698.75;5018814;28;20207;-71
2021/03/18 02:32:51;;;;;;;14.87;9.40;;;;;;;0.32;84.20;101709.25;5019358;28;20164;-71
2021/03/18 02:35:32;;;;;;;13.90;8.97;;;;;;;0.32;84.09;101709.25;5036216;28;20200;-70
2021/03/18 02:38:13;;;;;;;13.97;9.37;;;;;;;0.32;84.02;101709.25;5019188;28;20599;-71
2021/03/18 02:40:42;;;;;;;15.03;9.63;;;;;;;0.32;83.82;101697.88;5018602;28;20214;-71
2021/03/18 02:43:10;;;;;;;13.90;9.60;;;;;;;0.31;83.94;101691.75;5018515;28;20172;-70
2021/03/18 02:45:40;;;;;;;13.73;9.40;;;;;;;0.33;84.17;101694.38;5036214;28;20234;-72
2021/03/18 02:48:07;;;;;;;14.40;10.27;;;;;;;0.35;83.77;101697.00;5035846;28;20261;-70
2021/03/18 02:50:33;;;;;;;14.13;10.10;;;;;;;0.37;83.65;101697.88;5018688;28;20207;-72
2021/03/18 02:52:59;;;;;;;16.53;10.23;;;;;;;0.40;83.86;101695.31;5018312;28;20168;-71
2021/03/18 02:55:25;;;;;;;16.37;10.50;;;;;;;0.45;83.46;101701.44;5018391;28;20636;-71
2021/03/18 02:57:52;;;;;;;16.20;12.10;;;;;;;0.51;83.44;101697.06;5034721;28;20168;-71
2021/03/18 03:00:21;;;;;;;18.20;11.50;;;;;;;0.54;83.01;101698.81;5018383;28;20177;-71
2021/03/18 03:02:47;;;;;;;18.93;12.07;;;;;;;0.54;82.88;101702.31;5018112;28;20187;-71
2021/03/18 03:05:14;;;;;;;15.37;11.17;;;;;;;0.51;82.71;101698.81;5018163;28;20179;-72
2021/03/18 03:07:41;;;;;;;16.17;11.80;;;;;;;0.47;83.29;101692.69;5017703;28;20296;-72
2021/03/18 03:10:07;;;;;;;16.77;11.23;;;;;;;0.45;83.37;101693.56;5018343;28;20183;-71
2021/03/18 03:12:33;;;;;;;17.53;12.07;;;;;;;0.40;83.38;101683.03;5035490;28;20192;-71
2021/03/18 03:14:59;;;;;;;17.60;12.70;;;;;;;0.38;83.55;101695.28;5017804;28;20212;-70
2021/03/18 03:17:27;;;;;;;17.80;11.73;;;;;;;0.37;83.31;101684.75;5018042;28;20271;-71
2021/03/18 03:19:54;;;;;;;17.40;12.87;;;;;;;0.35;83.76;101681.25;5035539;28;20235;-71
2021/03/18 03:22:20;;;;;;;16.93;11.43;;;;;;;0.34;83.78;101680.38;5017767;28;20183;-71
2021/03/18 03:24:47;;;;;;;18.20;12.47;;;;;;;0.33;83.93;101676.00;5017521;28;20172;-72
2021/03/18 03:27:13;;;;;;;16.27;11.93;;;;;;;0.30;83.91;101679.50;5017863;28;20196;-72
2021/03/18 03:29:44;;;;;;;18.33;11.63;;;;;;;0.30;84.05;101684.75;5018089;28;20192;-72
2021/03/18 03:32:10;;;;;;;17.30;12.37;;;;;;;0.31;83.89;101681.25;5018011;28;20168;-72
2021/03/18 03:34:37;;;;;;;15.97;12.20;;;;;;;0.34;83.76;101679.50;5034992;28;20218;-71
2021/03/18 03:37:05;;;;;;;18.27;13.30;;;;;;;0.35;83.95;101682.13;5034620;28;20203;-71
2021/03/18 03:39:30;;;;;;;19.33;12.47;;;;;;;0.35;83.94;101673.38;5018584;28;20219;-72
2021/03/18 03:41:55;;;;;;;18.27;11.67;;;;;;;0.34;83.79;101679.50;5035786;28;20637;-71
2021/03/18 03:44:20;;;;;;;17.40;11.50;;;;;;;0.26;83.76;101669.84;5035306;28;20214;-71
2021/03/18 03:46:46;;;;;;;18.47;12.93;;;;;;;0.21;84.31;101666.34;5035420;28;20183;-71
2021/03/18 03:49:12;;;;;;;18.73;11.93;;;;;;;0.20;84.56;101672.47;5034589;28;20200;-71
2021/03/18 03:51:56;;;;;;;19.93;13.37;;;;;;;0.26;84.47;101675.09;5034703;28;20181;-71
2021/03/18 03:54:22;;;;;;;19.63;13.30;;;;;;;0.30;84.24;101674.25;5018690;28;20195;-70
2021/03/18 03:56:55;;;;;;;18.17;12.50;;;;;;;0.32;83.75;101672.50;5017066;28;20263;-71
2021/03/18 03:59:22;;;;;;;22.50;13.10;;;;;;;0.35;83.54;101676.88;5017187;28;20195;-71
2021/03/18 04:01:51;;;;;;;20.50;13.63;;;;;;;0.35;83.51;101671.63;5016869;28;20299;-72
2021/03/18 04:04:19;;;;;;;20.57;12.20;;;;;;;0.34;83.52;101674.25;5016908;28;20175;-72
2021/03/18 04:06:45;;;;;;;18.10;12.10;;;;;;;0.29;83.70;101661.97;5017460;28;20188;-72
2021/03/18 04:09:14;;;;;;;20.07;13.00;;;;;;;0.25;83.68;101659.34;5017029;28;20270;-72
2021/03/18 04:11:40;;;;;;;17.37;12.20;;;;;;;0.10;84.34;101647.06;5017510;28;20205;-72
2021/03/18 04:14:06;;;;;;;17.80;12.60;;;;;;;0.06;84.53;101653.19;5017272;28;20579;-70
2021/03/18 04:16:34;;;;;;;18.53;13.17;;;;;;;0.06;84.70;101654.94;5032955;28;20195;-71
2021/03/18 04:19:00;;;;;;;20.10;13.73;;;;;;;0.10;84.61;101664.56;5000190;28;20235;-72
2021/03/18 04:21:26;;;;;;;19.27;13.00;;;;;;;0.12;84.18;101654.94;5000082;28;20263;-72
2021/03/18 04:23:52;;;;;;;20.57;13.30;;;;;;;0.08;84.63;101655.81;5016524;28;20276;-72
2021/03/18 04:26:21;;;;;;;17.77;12.33;;;;;;;0.01;84.37;101654.94;5016306;28;20619;-71
2021/03/18 04:28:46;;;;;;;21.70;12.73;;;;;;;-0.03;84.97;101656.63;5016788;28;20208;-71
2021/03/18 04:31:12;;;;;;;24.23;15.20;;;;;;;0.01;85.30;101660.19;5033974;28;20231;-71
2021/03/18 04:33:37;;;;;;;22.87;15.03;;;;;;;0.14;85.54;101658.47;5016327;28;20184;-71
2021/03/18 04:36:03;;;;;;;23.97;15.67;;;;;;;0.11;85.07;101658.44;5016282;28;20188;-71
2021/03/18 04:38:30;;;;;;;25.87;15.07;;;;;;;0.11;84.91;101648.81;5016189;28;20196;-71
2021/03/18 04:40:55;;;;;;;28.90;17.27;;;;;;;-0.04;86.46;101654.88;5016171;28;20176;-71
2021/03/18 04:43:22;;;;;;;33.67;16.47;;;;;;;-0.05;86.83;101652.25;5015884;28;20191;-72
2021/03/18 04:45:48;;;;;;;28.17;16.77;;;;;;;-0.08;86.90;101653.13;5000350;28;20249;-72
2021/03/18 04:48:14;;;;;;;28.97;17.17;;;;;;;-0.13;87.22;101647.00;5015872;28;20684;-71
2021/03/18 04:50:40;;;;;;;32.47;17.20;;;;;;;-0.28;88.15;101651.31;5016172;28;20176;-71
2021/03/18 04:53:05;;;;;;;33.33;17.13;;;;;;;-0.23;88.00;101641.72;5015825;28;20230;-71
2021/03/18 04:55:31;;;;;;;33.03;17.57;;;;;;;-0.20;88.29;101644.34;5015882;28;20181;-72
2021/03/18 04:58:08;;;;;;;32.43;18.03;;;;;;;-0.18;88.29;101642.59;5015814;28;20192;-72
2021/03/18 05:00:34;;;;;;;33.17;18.27;;;;;;;-0.22;88.32;101640.84;5016302;28;20192;-72
2021/03/18 05:03:03;;;;;;;56.47;18.80;;;;;;;-0.34;88.82;101653.03;5032321;28;20178;-72
2021/03/18 05:05:30;;;;;;;36.93;18.73;;;;;;;-0.41;90.84;101652.97;5016420;28;20180;-71
2021/03/18 05:07:56;;;;;;;71.90;21.33;;;;;;;-0.42;91.70;101644.22;5015343;28;20221;-72
2021/03/18 05:10:24;;;;;;;47.50;20.57;;;;;;;-0.40;91.85;101645.09;5033604;28;20203;-72
2021/03/18 05:12:50;;;;;;;73.33;23.53;;;;;;;-0.42;91.47;101640.72;4999924;28;20180;-72
2021/03/18 05:15:16;;;;;;;79.73;27.17;;;;;;;-0.47;92.35;101639.84;5033553;28;20176;-72
2021/03/18 05:17:43;;;;;;;102.77;24.60;;;;;;;-0.48;92.97;101638.97;5015789;28;20230;-72
2021/03/18 05:20:10;;;;;;;46.03;19.97;;;;;;;-0.32;92.47;101630.31;5033292;28;20246;-73
2021/03/18 05:22:35;;;;;;;126.87;23.70;;;;;;;-0.61;92.41;101631.91;5033211;28;20641;-72
2021/03/18 05:25:03;;;;;;;37.63;18.63;;;;;;;-0.56;92.74;101630.19;5015858;28;20183;-72
2021/03/18 05:27:29;;;;;;;33.07;19.20;;;;;;;-0.45;92.00;101633.72;5033295;28;20211;-72
2021/03/18 05:29:54;;;;;;;40.93;20.10;;;;;;;-0.43;91.36;101633.72;5032993;28;20286;-72
2021/03/18 05:32:19;;;;;;;96.77;19.67;;;;;;;-0.50;91.18;101624.97;5015924;28;20180;-72
2021/03/18 05:34:44;;;;;;;61.37;19.37;;;;;;;-0.50;91.15;101624.09;4999009;28;20181;-72
2021/03/18 05:37:10;;;;;;;161.70;22.57;;;;;;;-0.59;91.92;101634.53;5033647;28;20183;-72
2021/03/18 05:39:35;;;;;;;216.30;24.53;;;;;;;-0.45;91.97;101633.72;5016094;28;20200;-72
2021/03/18 05:42:02;;;;;;;222.03;28.50;;;;;;;-0.46;91.52;101631.97;5015954;28;20181;-72
2021/03/18 05:44:27;;;;;;;28.77;15.57;;;;;;;-0.32;92.12;101632.06;5033237;28;20184;-73
2021/03/18 05:46:53;;;;;;;125.67;23.17;;;;;;;-0.36;91.16;101623.31;5016033;28;20580;-72
2021/03/18 05:49:19;;;;;;;43.57;18.10;;;;;;;-0.18;91.39;101622.47;5032429;28;20223;-73
2021/03/18 05:51:49;;;;;;;118.33;20.67;;;;;;;-0.15;91.07;101626.88;5016583;28;20184;-71
2021/03/18 05:54:15;;;;;;;29.50;17.57;;;;;;;-0.03;91.53;101625.13;5034139;28;20176;-72
2021/03/18 05:56:40;;;;;;;74.43;20.87;;;;;;;0.01;92.16;101622.56;5037276;28;20180;-66
2021/03/18 05:59:06;;;;;;;136.63;23.53;;;;;;;-0.23;91.62;101616.34;5019668;28;20203;-67
2021/03/18 06:01:31;;;;;;;147.83;25.33;;;;;;;-0.24;93.01;101617.22;5036903;28;20183;-65
2021/03/18 06:03:57;;;;;;;254.17;29.73;;;;;;;-0.13;93.23;101622.50;5019416;28;20212;-65
2021/03/18 06:06:23;;;;;;;166.37;23.90;;;;;;;0.09;91.95;101626.06;5035779;28;20217;-65
2021/03/18 06:08:48;;;;;;;160.57;23.43;;;;;;;0.02;91.31;101629.56;5018877;28;20255;-65
2021/03/18 06:11:14;;;;;;;50.87;21.77;;;;;;;-0.05;92.53;101628.63;5018835;28;20202;-65
2021/03/18 06:13:39;;;;;;;46.07;21.27;;;;;;;0.07;92.89;101628.69;5037054;28;20172;-65
2021/03/18 06:16:06;;;;;;;30.47;17.63;;;;;;;0.31;92.17;101622.59;5037012;28;20238;-65
2021/03/18 06:18:33;;;;;;;36.47;18.57;;;;;;;0.44;91.35;101620.88;5036427;28;20228;-63
2021/03/18 06:20:59;;;;;;;52.13;20.73;;;;;;;0.63;90.09;101620.00;5036991;28;20604;-72
2021/03/18 06:23:24;;;;;;;43.80;19.57;;;;;;;0.64;90.39;101624.38;5036507;28;20182;-75
2021/03/18 06:25:50;;;;;;;74.10;22.47;;;;;;;0.43;91.31;101621.75;5018854;28;20277;-72
2021/03/18 06:28:23;;;;;;;30.70;17.33;;;;;;;0.75;90.75;101619.16;5019206;28;20208;-72
2021/03/18 06:31:11;;;;;;;47.03;19.97;;;;;;;0.68;89.94;101618.25;5035855;28;20177;-72
2021/03/18 06:33:41;;;;;;;39.27;17.83;;;;;;;0.92;88.94;101605.13;5018610;28;20688;-71
2021/03/18 06:36:21;;;;;;;29.77;16.97;;;;;;;1.12;88.22;101614.75;5018668;28;20174;-72
2021/03/18 06:38:56;;;;;;;41.00;18.90;;;;;;;1.18;86.97;101610.34;5018430;28;20279;-72
2021/03/18 06:41:33;;;;;;;40.70;18.30;;;;;;;1.17;86.95;101615.59;5036161;28;20244;-72
2021/03/18 06:43:58;;;;;;;33.97;16.67;;;;;;;1.33;86.64;101616.44;5036312;28;20661;-72
2021/03/18 06:46:24;;;;;;;30.57;16.57;;;;;;;1.41;86.03;101612.03;5036218;28;20173;-72
2021/03/18 06:48:50;;;;;;;32.00;16.07;;;;;;;1.37;86.63;101618.16;5018610;28;20209;-72
2021/03/18 06:51:22;;;;;;;32.17;17.87;;;;;;;1.21;86.99;101614.72;5018486;28;20661;-72
2021/03/18 06:53:47;;;;;;;39.13;18.83;;;;;;;1.05;87.98;101608.59;5018301;28;20248;-72
2021/03/18 06:56:39;;;;;;;39.97;19.67;;;;;;;1.01;88.50;101611.22;5018968;28;20181;-72
2021/03/18 06:59:20;;;;;;;34.50;17.50;;;;;;;1.15;87.36;101609.47;5032266;28;20782;-72
2021/03/18 07:02:10;;;;;;;30.97;17.37;;;;;;;1.40;86.63;101610.28;5035104;28;20533;-71
2021/03/18 07:04:47;;;;;;;29.10;16.07;;;;;;;1.39;86.21;101603.25;5017886;28;20227;-72
2021/03/18 07:07:13;;;;;;;32.77;16.43;;;;;;;1.57;85.59;101608.47;5019525;28;20191;-71
2021/03/18 07:09:40;;;;;;;29.83;16.27;;;;;;;1.33;85.22;101609.41;5049379;28;20222;-72
2021/03/18 07:12:08;;;;;;;28.80;15.13;;;;;;;1.52;84.36;101613.75;5043514;28;20553;-72
2021/03/18 07:14:35;;;;;;;28.20;16.07;;;;;;;1.30;85.73;101611.19;5036974;28;20187;-72
2021/03/18 07:17:00;;;;;;;24.97;14.97;;;;;;;1.29;85.95;101618.19;5036488;28;20311;-73
2021/03/18 07:19:27;;;;;;;28.83;15.30;;;;;;;1.11;85.35;101612.97;5034423;28;20282;-71
2021/03/18 07:21:53;;;;;;;28.00;15.77;;;;;;;1.18;85.19;101609.47;5017873;28;20187;-72
2021/03/18 07:24:29;;;;;;;21.93;14.47;;;;;;;1.43;85.08;101610.25;5036273;28;20175;-72
2021/03/18 07:26:57;;;;;;;22.87;14.57;;;;;;;1.68;84.14;101613.69;5035872;28;20200;-71
2021/03/18 07:29:28;;;;;;;25.80;14.53;;;;;;;1.74;82.87;101611.03;5034384;28;20196;-71
2021/03/18 07:31:54;;;;;;;19.13;11.73;;;;;;;2.01;81.01;101608.25;5034763;28;20175;-72
2021/03/18 07:34:20;;;;;;;20.97;12.77;;;;;;;1.90;81.69;101602.19;5018096;28;20176;-71
2021/03/18 07:36:46;;;;;;;27.57;13.40;;;;;;;2.06;81.51;101606.47;5017810;28;20230;-72
2021/03/18 07:39:12;;;;;;;18.60;11.20;;;;;;;2.35;79.23;101601.03;5017687;28;20195;-71
2021/03/18 07:41:38;;;;;;;20.57;12.87;;;;;;;2.15;79.96;101597.63;5033733;28;20585;-71
2021/03/18 07:44:05;;;;;;;21.30;12.60;;;;;;;2.47;79.42;101605.31;5035085;28;20180;-70
2021/03/18 07:46:34;;;;;;;22.90;12.03;;;;;;;2.47;78.13;101602.69;5034884;28;20180;-71
2021/03/18 07:49:04;;;;;;;19.23;11.63;;;;;;;2.42;77.94;101599.22;5017283;28;20257;-71
2021/03/18 07:51:30;;;;;;;15.33;9.90;;;;;;;2.15;78.70;101598.50;5001471;28;20585;-71
2021/03/18 07:53:58;;;;;;;15.97;9.63;;;;;;;2.01;79.34;101597.72;5034866;28;20179;-71
2021/03/18 07:56:24;;;;;;;16.70;10.03;;;;;;;2.11;79.03;101595.91;5017021;28;20209;-71
2021/03/18 07:58:50;;;;;;;17.57;10.70;;;;;;;2.03;79.11;101598.59;5017161;28;20259;-72
2021/03/18 08:01:27;;;;;;;16.80;10.40;;;;;;;2.02;79.98;101594.22;5017278;28;20205;-72
2021/03/18 08:03:53;;;;;;;15.83;9.27;;;;;;;2.42;76.75;101589.56;5035344;28;20686;-71
2021/03/18 08:06:40;;;;;;;18.27;10.23;;;;;;;2.55;77.28;101592.97;5017242;28;20185;-72
2021/03/18 08:09:10;;;;;;;20.37;9.60;;;;;;;2.72;76.16;101587.56;5034121;28;20700;-72
2021/03/18 08:11:46;;;;;;;13.97;8.13;;;;;;;3.04;75.26;101595.19;5016988;28;20207;-72
2021/03/18 08:14:14;;;;;;;18.27;9.33;;;;;;;3.11;73.89;101588.94;5017243;28;20583;-71
2021/03/18 08:16:40;;;;;;;15.70;8.03;;;;;;;2.81;75.26;101591.00;5016101;28;20183;-71
2021/03/18 08:19:13;;;;;;;15.03;9.20;;;;;;;3.13;74.07;101593.31;5034879;28;20189;-71
2021/03/18 08:21:40;;;;;;;13.37;8.53;;;;;;;3.32;72.75;101588.72;5034303;28;20176;-72
2021/03/18 08:24:12;;;;;;;11.00;7.43;;;;;;;3.67;74.05;101593.56;5034135;28;20705;-72
2021/03/18 08:26:39;;;;;;;11.57;7.70;;;;;;;3.96;71.76;101590.56;5034341;28;20540;-73
2021/03/18 08:29:07;;;;;;;13.43;8.13;;;;;;;3.64;71.08;101588.34;5034054;28;20625;-73
2021/03/18 08:31:33;;;;;;;14.07;7.03;;;;;;;3.82;69.88;101583.72;5016986;28;20191;-72
2021/03/18 08:34:02;;;;;;;13.90;7.57;;;;;;;3.90;69.24;101582.72;5034129;28;20173;-71
2021/03/18 08:36:31;;;;;;;10.93;6.80;;;;;;;4.00;70.35;101588.75;5033834;28;20176;-71
2021/03/18 08:39:08;;;;;;;10.37;7.00;;;;;;;4.20;69.48;101580.56;5016360;28;20291;-71
2021/03/18 08:41:42;;;;;;;10.23;6.17;;;;;;;4.00;68.33;101573.78;4999928;28;20176;-72
2021/03/18 08:44:10;;;;;;;9.23;6.37;;;;;;;4.23;69.55;101583.16;5016300;28;20173;-71
2021/03/18 08:46:52;;;;;;;9.73;6.60;;;;;;;4.04;70.34;101580.75;5033767;28;20169;-72
2021/03/18 08:49:30;;;;;;;17.17;10.30;;;;;;;4.08;70.93;101578.94;5033554;28;20326;-71
2021/03/18 08:52:07;;;;;;;12.83;7.87;;;;;;;4.17;70.09;101585.88;5033640;28;20178;-72
2021/03/18 08:54:38;;;;;;;11.53;7.13;;;;;;;4.15;68.67;101582.41;5034020;28;20518;-71
2021/03/18 08:57:05;;;;;;;12.73;7.13;;;;;;;4.20;69.19;101585.84;5033654;28;20172;-71
2021/03/18 08:59:31;;;;;;;11.47;6.87;;;;;;;4.15;69.14;101585.03;5016422;28;20188;-71
2021/03/18 09:02:08;;;;;;;10.83;6.37;;;;;;;4.08;68.52;101585.09;5033845;28;20175;-71
2021/03/18 09:04:47;;;;;;;9.87;6.03;;;;;;;4.15;68.43;101585.91;5033836;28;20648;-71
2021/03/18 09:07:15;;;;;;;11.13;6.83;;;;;;;4.57;68.19;101578.22;5033499;28;20168;-71
2021/03/18 09:09:41;;;;;;;11.73;5.73;;;;;;;4.15;67.16;101579.75;5015830;28;20550;-72
2021/03/18 09:12:08;;;;;;;10.23;6.40;;;;;;;4.22;67.14;101573.47;5015825;28;20172;-72
2021/03/18 09:14:34;;;;;;;10.90;5.20;;;;;;;4.52;66.81;101567.72;5015831;28;20178;-71
2021/03/18 09:17:06;;;;;;;10.47;5.10;;;;;;;5.11;65.84;101560.50;5016122;28;20172;-71
2021/03/18 09:19:32;;;;;;;5.77;4.37;;;;;;;5.27;62.95;101561.94;5015531;28;20654;-71
2021/03/18 09:21:57;;;;;;;10.80;5.33;;;;;;;5.10;63.45;101553.44;5033240;28;20199;-72
2021/03/18 09:24:22;;;;;;;8.83;4.20;;;;;;;5.58;61.10;101564.88;5033222;28;20172;-72
2021/03/18 09:26:48;;;;;;;6.07;3.73;;;;;;;5.77;58.78;101560.03;5033713;28;20172;-72
2021/03/18 09:29:13;;;;;;;7.23;3.90;;;;;;;5.79;58.78;101560.00;5016005;28;20680;-73
2021/03/18 09:31:38;;;;;;;7.53;4.40;;;;;;;5.67;61.07;101555.84;5033075;28;20173;-72
2021/03/18 09:34:04;;;;;;;5.90;3.87;;;;;;;5.29;58.98;101562.78;4999264;28;20253;-73
2021/03/18 09:36:31;;;;;;;6.60;3.93;;;;;;;5.95;57.09;101564.97;5015672;28;20254;-71
2021/03/18 09:39:11;;;;;;;5.30;2.80;;;;;;;6.64;55.39;101558.03;5015886;28;20180;-71
2021/03/18 09:41:47;;;;;;;6.00;3.50;;;;;;;6.88;55.81;101559.19;5015692;28;20215;-72
2021/03/18 09:44:14;;;;;;;8.93;4.07;;;;;;;6.44;56.47;101561.19;4999006;28;20166;-71
2021/03/18 09:46:42;;;;;;;6.77;3.77;;;;;;;6.34;56.30;101556.16;5015600;28;20247;-73
2021/03/18 09:49:07;;;;;;;6.40;3.83;;;;;;;6.41;56.36;101553.31;4999165;28;20209;-72
2021/03/18 09:51:41;;;;;;;8.13;3.60;;;;;;;7.20;54.87;101551.25;5015259;28;20277;-73
2021/03/18 09:54:08;;;;;;;9.23;3.90;;;;;;;7.31;53.57;101548.28;4999524;28;20265;-72
2021/03/18 09:56:42;;;;;;;7.37;3.60;;;;;;;7.81;52.13;101546.81;5015483;28;20172;-72
2021/03/18 09:59:09;;;;;;;4.77;3.40;;;;;;;7.95;50.30;101540.22;5033219;28;20234;-72
2021/03/18 10:01:34;;;;;;;5.83;3.63;;;;;;;6.75;52.53;101537.41;4999017;28;20207;-72
2021/03/18 10:04:02;;;;;;;7.80;4.03;;;;;;;6.70;53.39;101538.44;4999006;28;20209;-71
2021/03/18 10:06:30;;;;;;;7.63;3.90;;;;;;;6.75;53.67;101531.25;5015527;28;20176;-72
2021/03/18 10:09:15;;;;;;;6.27;3.90;;;;;;;7.05;52.39;101529.53;5014813;28;20219;-71
2021/03/18 10:11:46;;;;;;;4.60;2.97;;;;;;;7.01;52.76;101528.75;5032894;28;20260;-72
2021/03/18 10:14:11;;;;;;;4.83;2.70;;;;;;;7.76;49.89;101526.59;4999095;28;20173;-71
2021/03/18 10:16:37;;;;;;;5.90;2.47;;;;;;;8.05;48.38;101523.91;4998852;28;20176;-72
2021/03/18 10:19:04;;;;;;;4.53;2.70;;;;;;;7.65;49.72;101516.28;4998688;28;20706;-72
2021/03/18 10:21:31;;;;;;;5.17;2.87;;;;;;;8.50;48.19;101517.19;5015439;28;20180;-72
2021/03/18 10:23:56;;;;;;;3.97;2.30;;;;;;;8.56;46.28;101511.69;5015835;28;20223;-72
2021/03/18 10:26:25;;;;;;;4.37;2.30;;;;;;;7.50;48.17;101516.75;5015168;28;20172;-72
2021/03/18 10:29:02;;;;;;;3.53;2.00;;;;;;;7.30;48.37;101506.69;5015365;28;20210;-72
2021/03/18 10:31:28;;;;;;;5.63;1.90;;;;;;;7.19;47.78;101508.81;5031574;28;20164;-72
2021/03/18 10:33:54;;;;;;;9.27;2.67;;;;;;;6.46;50.57;101508.97;5015320;28;20176;-71
2021/03/18 10:36:36;;;;;;;8.00;2.60;;;;;;;7.43;48.00;101504.56;4998547;28;20246;-72
2021/03/18 10:39:06;;;;;;;4.33;2.10;;;;;;;6.76;50.21;101491.41;5015047;28;20222;-71
2021/03/18 10:41:31;;;;;;;5.30;1.73;;;;;;;6.69;49.38;101502.19;5018708;28;20167;-71
2021/03/18 10:43:57;;;;;;;6.40;1.77;;;;;;;6.90;48.86;101497.19;5018624;28;20218;-72
2021/03/18 10:46:33;;;;;;;3.90;1.60;;;;;;;6.50;47.22;101505.34;5036877;28;20183;-73
2021/03/18 10:48:58;;;;;;;3.80;1.43;;;;;;;7.47;45.48;101498.25;5036519;28;20214;-72
2021/03/18 10:51:23;;;;;;;2.97;1.87;;;;;;;7.67;43.46;101490.56;5019751;28;20174;-72
2021/03/18 10:53:51;;;;;;;5.33;1.90;;;;;;;7.50;43.88;101490.19;5036690;28;20183;-72
2021/03/18 10:56:19;;;;;;;1.53;1.10;;;;;;;6.85;44.15;101479.66;5037945;28;20179;-72
2021/03/18 10:58:46;;;;;;;2.47;1.33;;;;;;;7.12;41.62;101481.56;5002058;28;20672;-72
2021/03/18 11:01:23;;;;;;;4.53;1.20;;;;;;;6.34;42.97;101469.53;5018716;28;20203;-73
2021/03/18 11:03:49;;;;;;;2.43;1.10;;;;;;;6.70;42.62;101470.34;5018974;28;20159;-72
2021/03/18 11:06:20;;;;;;;3.40;1.20;;;;;;;6.50;42.83;101459.38;5001996;28;20229;-71
2021/03/18 11:08:50;;;;;;;2.33;1.00;;;;;;;7.40;41.63;101462.16;5019111;28;20618;-73
2021/03/18 11:11:18;;;;;;;1.87;1.20;;;;;;;10.13;36.86;101452.47;5018715;28;20223;-72
2021/03/18 11:13:44;;;;;;;2.77;1.20;;;;;;;9.76;36.19;101456.63;5037185;28;20183;-72
2021/03/18 11:16:11;;;;;;;3.50;1.13;;;;;;;8.67;38.97;101450.97;5018122;28;20180;-72
2021/03/18 11:18:41;;;;;;;2.27;1.03;;;;;;;8.15;38.85;101455.34;5018296;28;20275;-72
2021/03/18 11:21:32;;;;;;;2.93;1.00;;;;;;;8.84;38.21;101453.03;5018795;28;20192;-72
2021/03/18 11:24:10;;;;;;;2.43;1.40;;;;;;;9.64;36.33;101433.97;5018598;28;20244;-72
2021/03/18 11:26:43;;;;;;;2.43;0.83;;;;;;;10.99;33.95;101439.00;5017891;28;20675;-72
2021/03/18 11:29:13;;;;;;;4.53;1.10;;;;;;;10.63;34.62;101424.53;5035387;28;20593;-72